This is the latest recevied weather packets stored in our database for station/object SP4MAZ-13. If no packets are shown the sender has not sent any weather packets the latest 10 day(s).
| Time | Temp. | Humidity | Pressure | Rain* | Wind** | Luminosity | Snow |
|---|---|---|---|---|---|---|---|
| 1777479611 | 6.67° C | 44% | 2147.4 hPa | - | - | - | - |
| 1777479310 | 7.22° C | 45% | 2147.4 hPa | - | - | - | - |
| 1777479007 | 7.22° C | 45% | 2147.4 hPa | - | - | - | - |
| 1777478703 | 7.22° C | 46% | 2147.4 hPa | - | - | - | - |
| 1777478400 | 7.78° C | 42% | 2147.4 hPa | - | - | - | - |
| 1777478096 | 7.78° C | 45% | 2147.4 hPa | - | - | - | - |
| 1777477792 | 7.78° C | 41% | 2147.4 hPa | - | - | - | - |
| 1777477490 | 7.78° C | 48% | 2147.4 hPa | - | - | - | - |
| 1777477186 | 7.22° C | 43% | 2147.4 hPa | - | - | - | - |
| 1777476882 | 7.78° C | 42% | 2147.4 hPa | - | - | - | - |
| 1777476578 | 8.33° C | 39% | 2147.4 hPa | - | - | - | - |
| 1777476276 | 8.33° C | 39% | 2147.4 hPa | - | - | - | - |
| 1777475972 | 8.33° C | 43% | 2147.4 hPa | - | - | - | - |
| 1777475668 | 9.44° C | 42% | 2147.4 hPa | - | - | - | - |
| 1777475365 | 9.44° C | 40% | 2147.4 hPa | - | - | - | - |
| 1777475061 | 8.33° C | 39% | 2147.4 hPa | - | - | - | - |
| 1777474758 | 8.89° C | 41% | 2147.4 hPa | - | - | - | - |
| 1777474455 | 7.22° C | 49% | 2147.4 hPa | - | - | - | - |
| 1777474151 | 8.89° C | 43% | 2147.4 hPa | - | - | - | - |
| 1777473848 | 7.22° C | 48% | 2147.4 hPa | - | - | - | - |
| 1777473544 | 7.22° C | 46% | 2147.4 hPa | - | - | - | - |
| 1777473246 | 7.78° C | 44% | 2147.4 hPa | - | - | - | - |
| 1777472938 | 7.78° C | 49% | 2147.4 hPa | - | - | - | - |
| 1777472634 | 7.22° C | 48% | 2147.4 hPa | - | - | - | - |
| 1777472333 | 7.78° C | 45% | 2147.4 hPa | - | - | - | - |
* Rain since midnight (hover to see other rain measurements)
** Current wind speed in m/s (hover to see current wind gust speed)